createdAt,value
2022-11-08T00:02:05.172Z,5.70
2022-11-08T00:04:32.197Z,8.03
2022-11-08T00:07:17.517Z,4.83
2022-11-08T00:10:02.745Z,4.27
2022-11-08T00:12:47.692Z,6.60
2022-11-08T00:15:14.638Z,6.87
2022-11-08T00:17:41.352Z,6.10
2022-11-08T00:20:09.054Z,7.10
2022-11-08T00:22:35.594Z,6.60
2022-11-08T00:25:02.522Z,5.70
2022-11-08T00:27:29.090Z,9.10
2022-11-08T00:29:55.682Z,7.50
2022-11-08T00:32:24.891Z,4.83
2022-11-08T00:34:52.601Z,4.70
2022-11-08T00:37:21.043Z,5.60
2022-11-08T00:39:47.909Z,5.43
2022-11-08T00:42:14.741Z,6.90
2022-11-08T00:44:41.279Z,5.73
2022-11-08T00:47:08.873Z,6.50
2022-11-08T00:49:35.444Z,7.33
2022-11-08T00:52:02.677Z,7.97
2022-11-08T00:54:29.180Z,9.20
2022-11-08T00:56:55.666Z,13.17
2022-11-08T00:59:22.136Z,7.40
2022-11-08T01:01:48.780Z,4.97
2022-11-08T01:04:17.745Z,9.13
2022-11-08T01:06:44.559Z,5.27
2022-11-08T01:09:11.070Z,11.30
2022-11-08T01:11:39.092Z,6.20
2022-11-08T01:14:05.840Z,7.47
2022-11-08T01:16:33.866Z,8.03
2022-11-08T01:19:02.569Z,7.07
2022-11-08T01:21:29.564Z,8.93
2022-11-08T01:23:56.517Z,5.30
2022-11-08T01:26:26.213Z,5.83
2022-11-08T01:28:54.148Z,6.97
2022-11-08T01:31:24.495Z,7.03
2022-11-08T01:33:52.031Z,7.17
2022-11-08T01:36:21.919Z,7.27
2022-11-08T01:38:48.928Z,7.20
2022-11-08T01:41:17.019Z,5.87
2022-11-08T01:43:48.350Z,5.27
2022-11-08T01:46:34.015Z,4.73
2022-11-08T01:49:27.119Z,5.90
2022-11-08T01:52:21.089Z,3.97
2022-11-08T01:54:53.295Z,8.70
2022-11-08T01:57:31.487Z,5.60
2022-11-08T02:00:02.840Z,6.27
2022-11-08T02:02:36.924Z,7.60
2022-11-08T02:05:07.656Z,9.03
2022-11-08T02:07:34.915Z,7.60
2022-11-08T02:10:03.148Z,7.37
2022-11-08T02:12:30.003Z,8.23
2022-11-08T02:14:56.543Z,5.50
2022-11-08T02:17:23.137Z,9.60
2022-11-08T02:19:51.017Z,4.17
2022-11-08T02:22:29.021Z,6.87
2022-11-08T02:24:58.276Z,6.57
2022-11-08T02:27:25.675Z,8.13
2022-11-08T02:29:54.577Z,7.03
2022-11-08T02:32:21.440Z,5.63
2022-11-08T02:34:53.914Z,6.70
2022-11-08T02:37:22.038Z,7.97
2022-11-08T02:39:48.619Z,9.57
2022-11-08T02:42:18.487Z,6.60
2022-11-08T02:44:46.365Z,5.47
2022-11-08T02:47:13.077Z,6.00
2022-11-08T02:49:39.712Z,8.20
2022-11-08T02:52:06.685Z,6.57
2022-11-08T02:54:33.279Z,8.63
2022-11-08T02:56:59.838Z,7.50
2022-11-08T02:59:26.393Z,7.73
2022-11-08T03:01:54.171Z,7.93
2022-11-08T03:04:20.773Z,5.63
2022-11-08T03:06:47.278Z,7.87
2022-11-08T03:09:13.896Z,7.60
2022-11-08T03:11:40.381Z,6.20
2022-11-08T03:14:06.950Z,6.73
2022-11-08T03:16:33.808Z,9.97
2022-11-08T03:19:00.668Z,8.70
2022-11-08T03:21:27.869Z,7.90
2022-11-08T03:23:54.522Z,7.77
2022-11-08T03:26:21.217Z,8.57
2022-11-08T03:28:47.634Z,3.93
2022-11-08T03:31:14.089Z,5.80
2022-11-08T03:33:40.665Z,6.83
2022-11-08T03:36:07.388Z,6.53
2022-11-08T03:38:33.989Z,4.63
2022-11-08T03:41:00.886Z,8.20
2022-11-08T03:43:27.781Z,5.40
2022-11-08T03:45:54.392Z,5.67
2022-11-08T03:48:23.361Z,7.43
2022-11-08T03:50:51.729Z,8.70
2022-11-08T03:53:18.324Z,6.23
2022-11-08T03:55:44.917Z,7.80
2022-11-08T03:58:12.028Z,8.10
2022-11-08T04:00:38.599Z,4.67
2022-11-08T04:03:05.141Z,6.10
2022-11-08T04:05:32.732Z,9.23
2022-11-08T04:08:02.581Z,4.90
2022-11-08T04:10:29.465Z,9.43
2022-11-08T04:13:17.941Z,9.63
2022-11-08T04:15:45.422Z,6.37
2022-11-08T04:18:30.591Z,5.20
2022-11-08T04:21:18.961Z,6.20
2022-11-08T04:23:46.241Z,4.57
2022-11-08T04:26:12.717Z,8.07
2022-11-08T04:28:41.476Z,5.17
2022-11-08T04:31:19.153Z,6.03
2022-11-08T04:33:46.306Z,3.60
2022-11-08T04:36:16.743Z,6.67
2022-11-08T04:38:44.009Z,7.27
2022-11-08T04:41:13.016Z,5.67
2022-11-08T04:43:39.953Z,7.83
2022-11-08T04:46:09.150Z,7.30
2022-11-08T04:48:37.073Z,6.23
2022-11-08T04:51:05.421Z,7.53
2022-11-08T04:53:32.779Z,5.10
2022-11-08T04:56:05.464Z,5.33
2022-11-08T04:58:37.005Z,6.33
2022-11-08T05:01:05.220Z,9.17
2022-11-08T05:03:32.090Z,6.57
2022-11-08T05:06:11.581Z,6.77
2022-11-08T05:08:39.207Z,6.17
2022-11-08T05:11:09.371Z,5.63
2022-11-08T05:13:36.432Z,4.17
2022-11-08T05:16:08.707Z,6.57
2022-11-08T05:18:35.399Z,5.83
2022-11-08T05:21:22.044Z,6.40
2022-11-08T05:23:49.888Z,5.27
2022-11-08T05:26:18.116Z,6.03
2022-11-08T05:28:44.903Z,5.90
2022-11-08T05:31:11.595Z,5.30
2022-11-08T05:33:38.263Z,6.87
2022-11-08T05:36:12.955Z,7.70
2022-11-08T05:38:40.988Z,5.23
2022-11-08T05:41:11.264Z,6.73
2022-11-08T05:43:38.123Z,7.33
2022-11-08T05:46:05.117Z,6.60
2022-11-08T05:48:31.697Z,7.03
2022-11-08T05:50:58.181Z,5.27
2022-11-08T05:53:25.062Z,9.07
2022-11-08T05:55:58.207Z,5.50
2022-11-08T05:58:25.142Z,7.07
2022-11-08T06:00:51.594Z,4.50
2022-11-08T06:03:22.611Z,6.17
2022-11-08T06:05:50.188Z,5.43
2022-11-08T06:08:16.750Z,7.33
2022-11-08T06:10:43.315Z,7.03
2022-11-08T06:13:09.752Z,7.90
2022-11-08T06:15:36.365Z,6.50
2022-11-08T06:18:04.484Z,6.73
2022-11-08T06:20:31.410Z,5.40
2022-11-08T06:22:57.937Z,8.33
2022-11-08T06:25:24.451Z,7.73
2022-11-08T06:27:50.894Z,11.00
2022-11-08T06:30:17.512Z,6.80
2022-11-08T06:32:43.999Z,9.73
2022-11-08T06:35:10.543Z,6.30
2022-11-08T06:37:37.104Z,7.77
2022-11-08T06:40:03.884Z,9.60
2022-11-08T06:42:30.488Z,8.20
2022-11-08T06:44:56.922Z,4.67
2022-11-08T06:47:23.431Z,6.53
2022-11-08T06:49:49.953Z,5.67
2022-11-08T06:52:16.436Z,6.23
2022-11-08T06:54:42.911Z,5.57
2022-11-08T06:57:09.663Z,7.43
2022-11-08T06:59:36.107Z,7.00
2022-11-08T07:02:05.748Z,8.77
2022-11-08T07:04:32.691Z,4.47
2022-11-08T07:06:59.957Z,6.77
2022-11-08T07:09:26.739Z,7.67
2022-11-08T07:11:53.206Z,8.47
2022-11-08T07:14:19.671Z,8.00
2022-11-08T07:16:46.125Z,5.07
2022-11-08T07:19:12.615Z,5.63
2022-11-08T07:21:39.552Z,8.80
2022-11-08T07:24:10.459Z,7.97
2022-11-08T07:26:37.330Z,7.97
2022-11-08T07:29:14.804Z,7.00
2022-11-08T07:31:42.362Z,6.63
2022-11-08T07:34:08.794Z,7.60
2022-11-08T07:36:35.571Z,10.43
2022-11-08T07:39:06.494Z,5.77
2022-11-08T07:41:34.293Z,4.53
2022-11-08T07:44:03.396Z,7.87
2022-11-08T07:46:29.985Z,9.87
2022-11-08T07:48:56.413Z,6.90
2022-11-08T07:51:22.903Z,6.20
2022-11-08T07:53:49.725Z,6.80
2022-11-08T07:56:16.157Z,8.10
2022-11-08T07:58:42.592Z,9.37
2022-11-08T08:01:09.034Z,8.27
2022-11-08T08:03:35.841Z,6.17
2022-11-08T08:06:03.151Z,6.93
2022-11-08T08:08:30.821Z,6.40
2022-11-08T08:11:00.417Z,9.20
2022-11-08T08:13:29.333Z,6.90
2022-11-08T08:16:02.450Z,8.37
2022-11-08T08:18:30.326Z,3.97
2022-11-08T08:20:57.328Z,4.13
2022-11-08T08:23:23.781Z,7.10
2022-11-08T08:25:50.212Z,9.17
2022-11-08T08:28:16.620Z,7.13
2022-11-08T08:30:43.073Z,7.57
2022-11-08T08:33:34.011Z,8.57
2022-11-08T08:36:05.228Z,5.83
2022-11-08T08:38:33.459Z,6.10
2022-11-08T08:41:04.312Z,4.13
2022-11-08T08:43:34.387Z,8.47
2022-11-08T08:46:04.509Z,6.60
2022-11-08T08:48:32.502Z,6.93
2022-11-08T08:51:00.051Z,7.37
2022-11-08T08:53:28.668Z,6.87
2022-11-08T08:55:55.177Z,7.13
2022-11-08T08:58:22.212Z,4.83
2022-11-08T09:03:36.272Z,7.30
2022-11-08T09:06:03.675Z,4.63
2022-11-08T09:08:30.783Z,4.63
2022-11-08T09:10:59.505Z,4.57
2022-11-08T09:13:27.756Z,4.97
2022-11-08T09:15:54.876Z,4.33
2022-11-08T09:18:21.481Z,4.87
2022-11-08T09:20:48.014Z,5.80
2022-11-08T09:23:16.948Z,5.87
2022-11-08T09:25:43.716Z,4.90
2022-11-08T09:28:10.322Z,4.37
2022-11-08T09:30:37.270Z,2.63
2022-11-08T09:33:05.303Z,4.97
2022-11-08T09:35:31.912Z,5.13
2022-11-08T09:37:58.765Z,3.87
2022-11-08T09:40:48.887Z,5.37
2022-11-08T09:43:38.395Z,4.60
2022-11-08T09:46:09.663Z,6.20
2022-11-08T09:48:41.960Z,4.30
2022-11-08T09:51:22.532Z,5.80
2022-11-08T09:53:52.180Z,3.83
2022-11-08T09:56:23.377Z,3.07
2022-11-08T09:58:58.179Z,4.17
2022-11-08T10:01:27.487Z,4.93
2022-11-08T10:03:58.897Z,4.27
2022-11-08T10:06:47.378Z,5.23
2022-11-08T10:09:38.641Z,6.30
2022-11-08T10:12:17.955Z,3.63
2022-11-08T10:15:28.372Z,5.07
2022-11-08T10:18:10.546Z,3.33
2022-11-08T10:21:05.559Z,4.70
2022-11-08T10:23:45.589Z,2.57
2022-11-08T10:26:18.073Z,2.67
2022-11-08T10:28:51.129Z,5.60
2022-11-08T10:31:19.839Z,3.37
2022-11-08T10:33:55.228Z,3.53
2022-11-08T10:36:24.452Z,4.27
2022-11-08T10:39:04.460Z,5.50
2022-11-08T10:41:47.354Z,3.10
2022-11-08T10:44:23.759Z,4.20
2022-11-08T10:46:56.180Z,4.27
2022-11-08T10:49:26.517Z,3.40
2022-11-08T10:51:56.197Z,3.87
2022-11-08T10:54:45.485Z,3.17
2022-11-08T10:57:33.751Z,7.13
2022-11-08T11:00:18.526Z,3.43
2022-11-08T11:02:46.322Z,3.00
2022-11-08T11:05:15.975Z,3.50
2022-11-08T11:08:08.022Z,2.57
2022-11-08T11:10:47.561Z,4.30
2022-11-08T11:13:14.106Z,3.10
2022-11-08T11:15:58.320Z,4.43
2022-11-08T11:18:27.636Z,4.77
2022-11-08T11:21:07.348Z,6.57
2022-11-08T11:23:33.826Z,3.60
2022-11-08T11:26:00.542Z,2.43
2022-11-08T11:28:27.298Z,2.40
2022-11-08T11:31:15.098Z,3.30
2022-11-08T11:33:46.352Z,4.03
2022-11-08T11:36:17.831Z,2.67
2022-11-08T11:38:53.762Z,5.80
2022-11-08T11:41:34.386Z,3.30
2022-11-08T11:44:14.088Z,3.93
2022-11-08T11:46:54.450Z,3.90
2022-11-08T11:49:21.688Z,2.27
2022-11-08T11:51:52.674Z,4.80
2022-11-08T11:54:19.180Z,5.03
2022-11-08T11:56:56.549Z,2.73
2022-11-08T12:00:08.177Z,4.60
2022-11-08T12:02:53.366Z,2.83
2022-11-08T12:05:29.880Z,5.27
2022-11-08T12:08:18.743Z,7.90
2022-11-08T12:10:51.555Z,6.63
2022-11-08T12:13:18.018Z,4.20
2022-11-08T12:16:03.518Z,3.60
2022-11-08T12:18:48.810Z,3.47
2022-11-08T12:21:54.776Z,2.80
2022-11-08T12:24:53.451Z,3.40
2022-11-08T12:27:42.052Z,4.47
2022-11-08T12:30:11.479Z,5.20
2022-11-08T12:33:04.556Z,4.43
2022-11-08T12:35:37.201Z,3.23
2022-11-08T12:38:29.112Z,6.43
2022-11-08T12:41:37.477Z,2.70
2022-11-08T12:44:28.704Z,3.27
2022-11-08T12:47:19.583Z,4.23
2022-11-08T12:49:54.024Z,2.70
2022-11-08T12:52:44.728Z,4.27
2022-11-08T12:55:22.541Z,3.40
2022-11-08T12:57:53.449Z,3.37
2022-11-08T13:00:20.255Z,3.63
2022-11-08T13:03:25.203Z,4.63
2022-11-08T13:06:19.008Z,4.07
2022-11-08T13:09:09.200Z,1.60
2022-11-08T13:12:08.004Z,2.67
2022-11-08T13:14:40.027Z,2.47
2022-11-08T13:17:26.201Z,1.97
2022-11-08T13:19:58.445Z,2.30
2022-11-08T13:22:31.151Z,3.20
2022-11-08T13:25:20.832Z,3.43
2022-11-08T13:27:48.626Z,2.20
2022-11-08T13:30:15.163Z,2.50
2022-11-08T13:32:59.524Z,3.00
2022-11-08T13:35:41.452Z,2.93
2022-11-08T13:38:42.051Z,3.93
2022-11-08T13:41:16.266Z,3.93
2022-11-08T13:43:42.885Z,2.67
2022-11-08T13:46:27.786Z,3.50
2022-11-08T13:49:05.607Z,2.90
2022-11-08T13:51:37.395Z,4.20
2022-11-08T13:54:22.355Z,4.50
2022-11-08T13:56:53.707Z,5.80
2022-11-08T13:59:32.910Z,3.43
2022-11-08T14:02:05.757Z,1.60
2022-11-08T14:04:37.350Z,2.20
2022-11-08T14:07:27.985Z,2.53
2022-11-08T14:10:16.375Z,2.27
2022-11-08T14:13:17.121Z,3.07
2022-11-08T14:15:50.635Z,2.90
2022-11-08T14:18:39.240Z,2.50
2022-11-08T14:21:07.443Z,2.30
2022-11-08T14:23:41.817Z,2.13
2022-11-08T14:26:11.300Z,2.43
2022-11-08T14:29:03.483Z,3.33
2022-11-08T14:31:34.697Z,3.07
2022-11-08T14:34:02.656Z,2.23
2022-11-08T14:36:31.769Z,3.80
2022-11-08T14:39:03.767Z,1.90
2022-11-08T14:41:32.637Z,4.00
2022-11-08T14:44:01.466Z,3.70
2022-11-08T14:46:35.725Z,5.57
2022-11-08T14:49:21.489Z,5.30
2022-11-08T14:52:07.221Z,2.73
2022-11-08T14:54:39.393Z,2.50
2022-11-08T14:57:35.845Z,3.37
2022-11-08T15:00:07.561Z,2.00
2022-11-08T15:02:34.835Z,2.67
2022-11-08T15:05:01.544Z,1.80
2022-11-08T15:07:28.354Z,2.63
2022-11-08T15:09:55.180Z,4.57
2022-11-08T15:12:24.392Z,2.40
2022-11-08T15:15:01.228Z,2.10
2022-11-08T15:17:39.092Z,5.00
2022-11-08T15:20:13.024Z,3.80
2022-11-08T15:22:40.131Z,2.37
2022-11-08T15:25:42.652Z,4.83
2022-11-08T15:28:21.465Z,3.47
2022-11-08T15:30:56.210Z,3.47
2022-11-08T15:33:24.866Z,2.47
2022-11-08T15:35:51.870Z,2.67
2022-11-08T15:38:24.188Z,4.50
2022-11-08T15:40:52.951Z,4.67
2022-11-08T15:43:31.529Z,4.67
2022-11-08T15:46:03.494Z,3.90
2022-11-08T15:48:30.453Z,2.43
2022-11-08T15:50:57.559Z,3.40
2022-11-08T15:53:25.910Z,4.33
2022-11-08T15:55:57.429Z,4.43
2022-11-08T15:58:36.272Z,2.90
2022-11-08T16:01:05.395Z,3.87
2022-11-08T16:03:33.951Z,2.90
2022-11-08T16:06:00.423Z,3.53
2022-11-08T16:08:28.350Z,4.97
2022-11-08T16:10:59.829Z,2.47
2022-11-08T16:13:37.024Z,2.90
2022-11-08T16:16:10.144Z,3.67
2022-11-08T16:18:36.650Z,5.43
2022-11-08T16:21:03.733Z,3.43
2022-11-08T16:23:30.256Z,3.50
2022-11-08T16:25:57.563Z,5.70
2022-11-08T16:28:29.567Z,4.80
2022-11-08T16:30:57.276Z,5.97
2022-11-08T16:33:26.079Z,5.67
2022-11-08T16:35:55.800Z,4.20
2022-11-08T16:38:25.135Z,4.37
2022-11-08T16:40:51.669Z,3.07
2022-11-08T16:43:18.104Z,5.03
2022-11-08T16:46:04.343Z,2.67
2022-11-08T16:48:31.401Z,1.97
2022-11-08T16:51:01.405Z,4.73
2022-11-08T16:53:29.342Z,3.80
2022-11-08T16:55:59.261Z,5.00
2022-11-08T16:58:27.849Z,5.07
2022-11-08T17:00:54.502Z,5.77
2022-11-08T17:03:23.062Z,4.00
2022-11-08T17:05:50.070Z,2.97
2022-11-08T17:08:17.106Z,2.23
2022-11-08T17:10:43.894Z,5.20
2022-11-08T17:13:15.380Z,2.30
2022-11-08T17:15:42.276Z,2.90
2022-11-08T17:18:11.754Z,2.30
2022-11-08T17:20:38.544Z,3.17
2022-11-08T17:23:05.516Z,3.33
2022-11-08T17:25:32.256Z,2.60
2022-11-08T17:27:58.794Z,2.60
2022-11-08T17:30:26.849Z,5.40
2022-11-08T17:32:54.017Z,5.20
2022-11-08T17:35:20.757Z,2.93
2022-11-08T17:37:47.367Z,3.03
2022-11-08T17:40:13.850Z,3.67
2022-11-08T17:42:40.390Z,3.10
2022-11-08T17:45:09.570Z,2.53
2022-11-08T17:47:36.749Z,4.53
2022-11-08T17:50:04.828Z,2.90
2022-11-08T17:52:31.549Z,4.80
2022-11-08T17:54:58.093Z,4.13
2022-11-08T17:57:24.862Z,4.70
2022-11-08T17:59:51.377Z,3.83
2022-11-08T18:02:17.860Z,3.17
2022-11-08T18:04:44.440Z,2.70
2022-11-08T18:07:10.924Z,4.27
2022-11-08T18:09:37.726Z,3.50
2022-11-08T18:12:04.864Z,3.13
2022-11-08T18:14:31.588Z,3.20
2022-11-08T18:16:59.640Z,5.27
2022-11-08T18:19:26.282Z,2.40
2022-11-08T18:21:52.792Z,5.77
2022-11-08T18:24:19.463Z,4.33
2022-11-08T18:26:45.938Z,3.30
2022-11-08T18:29:12.428Z,4.67
2022-11-08T18:31:39.186Z,5.57
2022-11-08T18:34:05.867Z,3.50
2022-11-08T18:36:32.502Z,2.40
2022-11-08T18:39:00.801Z,4.83
2022-11-08T18:41:31.658Z,3.50
2022-11-08T18:44:00.369Z,3.77
2022-11-08T18:46:34.882Z,3.50
2022-11-08T18:49:05.100Z,5.20
2022-11-08T18:51:31.753Z,3.63
2022-11-08T18:53:58.245Z,3.97
2022-11-08T18:56:25.007Z,4.43
2022-11-08T18:58:51.486Z,2.70
2022-11-08T19:01:18.283Z,5.20
2022-11-08T19:03:44.769Z,4.20
2022-11-08T19:06:11.314Z,5.47
2022-11-08T19:08:37.941Z,3.03
2022-11-08T19:11:07.833Z,5.50
2022-11-08T19:13:36.595Z,4.40
2022-11-08T19:16:05.163Z,3.40
2022-11-08T19:18:32.074Z,3.53
2022-11-08T19:20:59.981Z,3.83
2022-11-08T19:23:27.366Z,3.47
2022-11-08T19:26:02.589Z,4.30
2022-11-08T19:28:33.084Z,3.57
2022-11-08T19:31:00.166Z,3.40
2022-11-08T19:33:29.473Z,3.87
2022-11-08T19:36:00.755Z,4.00
2022-11-08T19:38:27.787Z,4.10
2022-11-08T19:40:54.201Z,4.50
2022-11-08T19:43:21.121Z,3.43
2022-11-08T19:45:53.235Z,2.73
2022-11-08T19:48:20.573Z,4.70
2022-11-08T19:50:47.821Z,3.20
2022-11-08T19:53:14.237Z,5.10
2022-11-08T19:55:40.685Z,4.10
2022-11-08T19:58:07.239Z,5.13
2022-11-08T20:00:33.990Z,3.57
2022-11-08T20:03:08.007Z,4.23
2022-11-08T20:05:34.664Z,3.57
2022-11-08T20:08:04.736Z,5.57
2022-11-08T20:10:31.701Z,3.37
2022-11-08T20:12:58.230Z,3.63
2022-11-08T20:15:24.709Z,3.03
2022-11-08T20:17:51.142Z,3.63
2022-11-08T20:20:17.649Z,3.37
2022-11-08T20:22:47.921Z,4.47
2022-11-08T20:25:14.741Z,2.93
2022-11-08T20:27:41.208Z,5.90
2022-11-08T20:30:08.430Z,3.47
2022-11-08T20:32:35.102Z,3.90
2022-11-08T20:35:04.167Z,5.77
2022-11-08T20:37:30.906Z,2.90
2022-11-08T20:39:57.440Z,2.93
2022-11-08T20:42:24.099Z,3.27
2022-11-08T20:44:52.993Z,2.50
2022-11-08T20:47:20.278Z,4.23
2022-11-08T20:49:46.748Z,4.47
2022-11-08T20:52:16.480Z,6.10
2022-11-08T20:54:44.170Z,3.83
2022-11-08T20:57:11.027Z,2.90
2022-11-08T20:59:37.760Z,4.50
2022-11-08T21:02:04.868Z,5.80
2022-11-08T21:04:31.596Z,4.87
2022-11-08T21:07:59.439Z,3.13
2022-11-08T21:09:50.515Z,4.77
2022-11-08T21:12:18.325Z,2.70
2022-11-08T21:14:45.462Z,3.73
2022-11-08T21:17:27.422Z,5.20
2022-11-08T21:19:54.347Z,3.07
2022-11-08T21:22:20.855Z,3.70
2022-11-08T21:24:48.128Z,3.80
2022-11-08T21:27:15.616Z,3.37
2022-11-08T21:29:42.130Z,2.87
2022-11-08T21:32:08.733Z,3.07
2022-11-08T21:34:35.361Z,5.33
2022-11-08T21:37:01.829Z,2.33
2022-11-08T21:39:28.277Z,4.97
2022-11-08T21:41:54.695Z,3.53
2022-11-08T21:44:21.245Z,2.40
2022-11-08T21:46:47.757Z,3.87
2022-11-08T21:49:14.374Z,3.47
2022-11-08T21:51:40.985Z,3.70
2022-11-08T21:54:07.539Z,4.33
2022-11-08T21:56:35.171Z,3.20
2022-11-08T21:59:03.141Z,5.17
2022-11-08T22:01:31.018Z,6.27
2022-11-08T22:04:00.640Z,5.03
2022-11-08T22:06:28.173Z,3.87
2022-11-08T22:08:54.703Z,4.20
2022-11-08T22:11:21.119Z,4.97
2022-11-08T22:13:47.614Z,3.27
2022-11-08T22:16:14.019Z,5.20
2022-11-08T22:19:03.480Z,3.37
2022-11-08T22:21:39.615Z,3.73
2022-11-08T22:24:14.588Z,4.00
2022-11-08T22:26:41.837Z,4.57
2022-11-08T22:29:08.885Z,3.43
2022-11-08T22:31:36.281Z,5.87
2022-11-08T22:34:03.868Z,3.20
2022-11-08T22:36:30.433Z,4.00
2022-11-08T22:38:56.948Z,3.53
2022-11-08T22:41:24.044Z,3.63
2022-11-08T22:43:50.937Z,4.27
2022-11-08T22:46:17.997Z,6.17
2022-11-08T22:48:44.995Z,4.93
2022-11-08T22:51:11.744Z,4.33
2022-11-08T22:53:38.420Z,3.97
2022-11-08T22:56:10.788Z,2.97
2022-11-08T22:58:38.093Z,3.17
2022-11-08T23:01:05.063Z,4.07
2022-11-08T23:03:31.589Z,3.27
2022-11-08T23:05:58.262Z,4.17
2022-11-08T23:08:26.477Z,4.70
2022-11-08T23:11:11.988Z,3.70
2022-11-08T23:13:57.759Z,4.63
2022-11-08T23:16:37.327Z,3.53
2022-11-08T23:19:33.345Z,4.07
2022-11-08T23:22:19.635Z,3.07
2022-11-08T23:24:46.085Z,4.03
2022-11-08T23:27:33.446Z,4.93
2022-11-08T23:30:18.794Z,4.00
2022-11-08T23:32:47.896Z,5.53
2022-11-08T23:35:15.489Z,4.57
2022-11-08T23:37:42.342Z,5.03
2022-11-08T23:40:29.124Z,5.70
2022-11-08T23:43:23.189Z,3.60
2022-11-08T23:45:49.908Z,3.10
2022-11-08T23:48:16.392Z,3.83
2022-11-08T23:50:51.105Z,5.50
2022-11-08T23:53:18.573Z,3.60
2022-11-08T23:55:45.341Z,4.57
2022-11-08T23:58:13.374Z,3.10
